sensor_id;sensor_type;location;lat;lon;timestamp;P1;durP1;ratioP1;P2;durP2;ratioP2
12177;SDS011;6152;48.728;9.256;2024-01-27T00:01:50;2.05;;;0.60;;
12177;SDS011;6152;48.728;9.256;2024-01-27T00:04:16;3.33;;;0.65;;
12177;SDS011;6152;48.728;9.256;2024-01-27T00:06:43;2.25;;;0.80;;
12177;SDS011;6152;48.728;9.256;2024-01-27T00:09:09;1.70;;;0.75;;
12177;SDS011;6152;48.728;9.256;2024-01-27T00:11:35;3.88;;;0.88;;
12177;SDS011;6152;48.728;9.256;2024-01-27T00:14:01;2.17;;;1.10;;
12177;SDS011;6152;48.728;9.256;2024-01-27T00:16:28;1.55;;;0.80;;
12177;SDS011;6152;48.728;9.256;2024-01-27T00:18:54;1.88;;;0.80;;
12177;SDS011;6152;48.728;9.256;2024-01-27T00:21:20;5.07;;;1.27;;
12177;SDS011;6152;48.728;9.256;2024-01-27T00:23:47;4.28;;;0.95;;
12177;SDS011;6152;48.728;9.256;2024-01-27T00:26:13;2.72;;;0.90;;
12177;SDS011;6152;48.728;9.256;2024-01-27T00:28:39;4.32;;;0.98;;
12177;SDS011;6152;48.728;9.256;2024-01-27T00:31:05;4.05;;;1.15;;
12177;SDS011;6152;48.728;9.256;2024-01-27T00:33:31;7.32;;;1.40;;
12177;SDS011;6152;48.728;9.256;2024-01-27T00:35:57;5.35;;;0.93;;
12177;SDS011;6152;48.728;9.256;2024-01-27T00:38:23;2.00;;;1.33;;
12177;SDS011;6152;48.728;9.256;2024-01-27T00:40:50;5.20;;;1.20;;
12177;SDS011;6152;48.728;9.256;2024-01-27T00:43:16;2.97;;;0.93;;
12177;SDS011;6152;48.728;9.256;2024-01-27T00:45:42;5.60;;;1.20;;
12177;SDS011;6152;48.728;9.256;2024-01-27T00:48:08;2.35;;;1.00;;
12177;SDS011;6152;48.728;9.256;2024-01-27T00:50:34;2.28;;;0.85;;
12177;SDS011;6152;48.728;9.256;2024-01-27T00:53:00;3.70;;;0.80;;
12177;SDS011;6152;48.728;9.256;2024-01-27T00:55:26;2.88;;;1.15;;
12177;SDS011;6152;48.728;9.256;2024-01-27T00:57:52;4.07;;;1.40;;
12177;SDS011;6152;48.728;9.256;2024-01-27T01:00:19;3.47;;;1.60;;
12177;SDS011;6152;48.728;9.256;2024-01-27T01:02:45;3.08;;;1.30;;
12177;SDS011;6152;48.728;9.256;2024-01-27T01:05:12;4.82;;;1.33;;
12177;SDS011;6152;48.728;9.256;2024-01-27T01:07:39;2.63;;;1.48;;
12177;SDS011;6152;48.728;9.256;2024-01-27T01:10:05;2.22;;;1.50;;
12177;SDS011;6152;48.728;9.256;2024-01-27T01:12:32;2.35;;;1.00;;
12177;SDS011;6152;48.728;9.256;2024-01-27T01:14:58;2.45;;;1.08;;
12177;SDS011;6152;48.728;9.256;2024-01-27T01:17:24;2.67;;;1.38;;
12177;SDS011;6152;48.728;9.256;2024-01-27T01:19:50;6.10;;;1.40;;
12177;SDS011;6152;48.728;9.256;2024-01-27T01:22:16;5.68;;;1.73;;
12177;SDS011;6152;48.728;9.256;2024-01-27T01:24:42;1.83;;;0.80;;
12177;SDS011;6152;48.728;9.256;2024-01-27T01:27:08;2.15;;;0.93;;
12177;SDS011;6152;48.728;9.256;2024-01-27T01:29:34;3.97;;;1.45;;
12177;SDS011;6152;48.728;9.256;2024-01-27T01:32:00;1.92;;;0.85;;
12177;SDS011;6152;48.728;9.256;2024-01-27T01:34:28;1.92;;;0.88;;
12177;SDS011;6152;48.728;9.256;2024-01-27T01:36:54;3.05;;;1.00;;
12177;SDS011;6152;48.728;9.256;2024-01-27T01:39:22;3.08;;;0.93;;
12177;SDS011;6152;48.728;9.256;2024-01-27T01:41:48;3.00;;;1.10;;
12177;SDS011;6152;48.728;9.256;2024-01-27T01:44:14;3.53;;;1.08;;
12177;SDS011;6152;48.728;9.256;2024-01-27T01:46:40;2.35;;;0.90;;
12177;SDS011;6152;48.728;9.256;2024-01-27T01:49:07;3.05;;;0.95;;
12177;SDS011;6152;48.728;9.256;2024-01-27T01:51:33;4.00;;;1.63;;
12177;SDS011;6152;48.728;9.256;2024-01-27T01:53:59;1.88;;;0.90;;
12177;SDS011;6152;48.728;9.256;2024-01-27T01:56:26;1.08;;;0.95;;
12177;SDS011;6152;48.728;9.256;2024-01-27T01:58:56;4.68;;;1.20;;
12177;SDS011;6152;48.728;9.256;2024-01-27T02:01:22;1.80;;;0.90;;
12177;SDS011;6152;48.728;9.256;2024-01-27T02:03:52;1.88;;;0.80;;
12177;SDS011;6152;48.728;9.256;2024-01-27T02:06:18;2.45;;;1.02;;
12177;SDS011;6152;48.728;9.256;2024-01-27T02:08:45;4.70;;;1.13;;
12177;SDS011;6152;48.728;9.256;2024-01-27T02:11:11;4.25;;;1.02;;
12177;SDS011;6152;48.728;9.256;2024-01-27T02:13:37;2.10;;;1.00;;
12177;SDS011;6152;48.728;9.256;2024-01-27T02:16:03;5.65;;;1.30;;
12177;SDS011;6152;48.728;9.256;2024-01-27T02:18:30;2.42;;;0.95;;
12177;SDS011;6152;48.728;9.256;2024-01-27T02:20:56;1.35;;;0.93;;
12177;SDS011;6152;48.728;9.256;2024-01-27T02:23:22;2.47;;;1.10;;
12177;SDS011;6152;48.728;9.256;2024-01-27T02:25:48;5.43;;;1.63;;
12177;SDS011;6152;48.728;9.256;2024-01-27T02:28:15;3.70;;;1.13;;
12177;SDS011;6152;48.728;9.256;2024-01-27T02:30:42;6.50;;;1.13;;
12177;SDS011;6152;48.728;9.256;2024-01-27T02:33:08;7.20;;;1.30;;
12177;SDS011;6152;48.728;9.256;2024-01-27T02:35:34;2.33;;;1.08;;
12177;SDS011;6152;48.728;9.256;2024-01-27T02:38:01;2.33;;;1.40;;
12177;SDS011;6152;48.728;9.256;2024-01-27T02:40:27;3.22;;;0.90;;
12177;SDS011;6152;48.728;9.256;2024-01-27T02:42:53;3.23;;;1.50;;
12177;SDS011;6152;48.728;9.256;2024-01-27T02:45:19;3.17;;;1.13;;
12177;SDS011;6152;48.728;9.256;2024-01-27T02:47:45;2.60;;;0.90;;
12177;SDS011;6152;48.728;9.256;2024-01-27T02:50:11;1.67;;;1.00;;
12177;SDS011;6152;48.728;9.256;2024-01-27T02:52:37;1.43;;;0.90;;
12177;SDS011;6152;48.728;9.256;2024-01-27T02:55:04;4.07;;;1.30;;
12177;SDS011;6152;48.728;9.256;2024-01-27T02:57:30;3.57;;;1.40;;
12177;SDS011;6152;48.728;9.256;2024-01-27T02:59:56;3.90;;;1.13;;
12177;SDS011;6152;48.728;9.256;2024-01-27T03:02:22;2.72;;;1.40;;
12177;SDS011;6152;48.728;9.256;2024-01-27T03:04:49;3.47;;;1.45;;
12177;SDS011;6152;48.728;9.256;2024-01-27T03:07:15;2.38;;;1.05;;
12177;SDS011;6152;48.728;9.256;2024-01-27T03:09:41;3.15;;;1.20;;
12177;SDS011;6152;48.728;9.256;2024-01-27T03:12:07;5.30;;;1.83;;
12177;SDS011;6152;48.728;9.256;2024-01-27T03:14:33;3.85;;;1.48;;
12177;SDS011;6152;48.728;9.256;2024-01-27T03:16:59;3.63;;;1.10;;
12177;SDS011;6152;48.728;9.256;2024-01-27T03:19:26;7.43;;;1.50;;
12177;SDS011;6152;48.728;9.256;2024-01-27T03:21:52;3.33;;;1.17;;
12177;SDS011;6152;48.728;9.256;2024-01-27T03:24:18;2.55;;;1.42;;
12177;SDS011;6152;48.728;9.256;2024-01-27T03:26:44;6.18;;;1.33;;
12177;SDS011;6152;48.728;9.256;2024-01-27T03:29:10;3.85;;;1.23;;
12177;SDS011;6152;48.728;9.256;2024-01-27T03:31:36;7.00;;;1.38;;
12177;SDS011;6152;48.728;9.256;2024-01-27T03:34:02;2.67;;;1.10;;
12177;SDS011;6152;48.728;9.256;2024-01-27T03:36:28;4.07;;;1.13;;
12177;SDS011;6152;48.728;9.256;2024-01-27T03:38:56;3.97;;;1.40;;
12177;SDS011;6152;48.728;9.256;2024-01-27T03:41:23;3.07;;;1.00;;
12177;SDS011;6152;48.728;9.256;2024-01-27T03:43:49;2.70;;;1.50;;
12177;SDS011;6152;48.728;9.256;2024-01-27T03:46:15;2.75;;;1.48;;
12177;SDS011;6152;48.728;9.256;2024-01-27T03:48:42;5.07;;;1.10;;
12177;SDS011;6152;48.728;9.256;2024-01-27T03:51:08;2.35;;;1.45;;
12177;SDS011;6152;48.728;9.256;2024-01-27T03:53:34;6.00;;;1.30;;
12177;SDS011;6152;48.728;9.256;2024-01-27T03:56:01;2.40;;;1.20;;
12177;SDS011;6152;48.728;9.256;2024-01-27T03:58:29;4.73;;;1.67;;
12177;SDS011;6152;48.728;9.256;2024-01-27T04:00:56;2.75;;;1.40;;
12177;SDS011;6152;48.728;9.256;2024-01-27T04:03:22;7.70;;;1.48;;
12177;SDS011;6152;48.728;9.256;2024-01-27T04:05:49;4.40;;;1.30;;
12177;SDS011;6152;48.728;9.256;2024-01-27T04:08:15;2.65;;;1.27;;
12177;SDS011;6152;48.728;9.256;2024-01-27T04:10:41;5.50;;;1.92;;
12177;SDS011;6152;48.728;9.256;2024-01-27T04:13:07;2.83;;;1.53;;
12177;SDS011;6152;48.728;9.256;2024-01-27T04:15:34;1.95;;;1.27;;
12177;SDS011;6152;48.728;9.256;2024-01-27T04:18:03;4.33;;;1.30;;
12177;SDS011;6152;48.728;9.256;2024-01-27T04:20:32;5.63;;;1.60;;
12177;SDS011;6152;48.728;9.256;2024-01-27T04:22:59;3.50;;;1.23;;
12177;SDS011;6152;48.728;9.256;2024-01-27T04:25:26;2.93;;;1.40;;
12177;SDS011;6152;48.728;9.256;2024-01-27T04:27:52;2.37;;;1.57;;
12177;SDS011;6152;48.728;9.256;2024-01-27T04:30:19;6.70;;;1.60;;
12177;SDS011;6152;48.728;9.256;2024-01-27T04:32:45;4.70;;;1.40;;
12177;SDS011;6152;48.728;9.256;2024-01-27T04:35:14;4.13;;;1.80;;
12177;SDS011;6152;48.728;9.256;2024-01-27T04:37:40;2.30;;;1.60;;
12177;SDS011;6152;48.728;9.256;2024-01-27T04:40:06;4.07;;;2.20;;
12177;SDS011;6152;48.728;9.256;2024-01-27T04:42:33;3.47;;;1.60;;
12177;SDS011;6152;48.728;9.256;2024-01-27T04:44:59;6.50;;;1.60;;
12177;SDS011;6152;48.728;9.256;2024-01-27T04:47:26;6.57;;;2.10;;
12177;SDS011;6152;48.728;9.256;2024-01-27T04:49:53;6.27;;;2.07;;
12177;SDS011;6152;48.728;9.256;2024-01-27T04:52:19;5.30;;;2.20;;
12177;SDS011;6152;48.728;9.256;2024-01-27T04:54:46;3.27;;;1.90;;
12177;SDS011;6152;48.728;9.256;2024-01-27T04:57:12;5.90;;;1.83;;
12177;SDS011;6152;48.728;9.256;2024-01-27T04:59:38;3.47;;;2.00;;
12177;SDS011;6152;48.728;9.256;2024-01-27T05:02:04;3.07;;;2.00;;
12177;SDS011;6152;48.728;9.256;2024-01-27T05:04:30;6.40;;;1.93;;
12177;SDS011;6152;48.728;9.256;2024-01-27T05:06:56;4.03;;;2.43;;
12177;SDS011;6152;48.728;9.256;2024-01-27T05:09:22;3.75;;;1.75;;
12177;SDS011;6152;48.728;9.256;2024-01-27T05:11:49;4.30;;;2.17;;
12177;SDS011;6152;48.728;9.256;2024-01-27T05:14:17;7.97;;;2.10;;
12177;SDS011;6152;48.728;9.256;2024-01-27T05:16:44;6.17;;;2.10;;
12177;SDS011;6152;48.728;9.256;2024-01-27T05:19:10;5.87;;;1.87;;
12177;SDS011;6152;48.728;9.256;2024-01-27T05:21:37;3.70;;;1.80;;
12177;SDS011;6152;48.728;9.256;2024-01-27T05:24:03;4.33;;;1.90;;
12177;SDS011;6152;48.728;9.256;2024-01-27T05:26:30;5.27;;;2.10;;
12177;SDS011;6152;48.728;9.256;2024-01-27T05:28:56;2.90;;;2.27;;
12177;SDS011;6152;48.728;9.256;2024-01-27T05:31:22;4.63;;;2.03;;
12177;SDS011;6152;48.728;9.256;2024-01-27T05:33:48;3.17;;;1.97;;
12177;SDS011;6152;48.728;9.256;2024-01-27T05:36:14;4.40;;;2.60;;
12177;SDS011;6152;48.728;9.256;2024-01-27T05:38:41;4.23;;;2.30;;
12177;SDS011;6152;48.728;9.256;2024-01-27T05:41:07;3.73;;;2.00;;
12177;SDS011;6152;48.728;9.256;2024-01-27T05:43:33;6.47;;;2.87;;
12177;SDS011;6152;48.728;9.256;2024-01-27T05:45:59;6.27;;;2.10;;
12177;SDS011;6152;48.728;9.256;2024-01-27T05:48:25;4.73;;;2.10;;
12177;SDS011;6152;48.728;9.256;2024-01-27T05:50:55;4.70;;;2.03;;
12177;SDS011;6152;48.728;9.256;2024-01-27T05:53:22;5.10;;;2.00;;
12177;SDS011;6152;48.728;9.256;2024-01-27T05:55:48;4.27;;;2.10;;
12177;SDS011;6152;48.728;9.256;2024-01-27T05:58:14;7.00;;;2.33;;
12177;SDS011;6152;48.728;9.256;2024-01-27T06:00:42;3.07;;;2.00;;
12177;SDS011;6152;48.728;9.256;2024-01-27T06:03:09;5.07;;;2.50;;
12177;SDS011;6152;48.728;9.256;2024-01-27T06:05:35;3.47;;;2.10;;
12177;SDS011;6152;48.728;9.256;2024-01-27T06:08:02;4.57;;;2.30;;
12177;SDS011;6152;48.728;9.256;2024-01-27T06:10:29;5.83;;;1.93;;
12177;SDS011;6152;48.728;9.256;2024-01-27T06:12:56;4.13;;;2.13;;
12177;SDS011;6152;48.728;9.256;2024-01-27T06:15:22;5.43;;;2.63;;
12177;SDS011;6152;48.728;9.256;2024-01-27T06:17:48;4.07;;;1.90;;
12177;SDS011;6152;48.728;9.256;2024-01-27T06:20:14;4.20;;;2.20;;
12177;SDS011;6152;48.728;9.256;2024-01-27T06:22:42;2.83;;;2.10;;
12177;SDS011;6152;48.728;9.256;2024-01-27T06:25:08;4.33;;;1.97;;
12177;SDS011;6152;48.728;9.256;2024-01-27T06:27:35;5.70;;;2.00;;
12177;SDS011;6152;48.728;9.256;2024-01-27T06:30:03;6.40;;;2.50;;
12177;SDS011;6152;48.728;9.256;2024-01-27T06:32:30;4.27;;;2.17;;
12177;SDS011;6152;48.728;9.256;2024-01-27T06:34:56;4.87;;;2.10;;
12177;SDS011;6152;48.728;9.256;2024-01-27T06:37:22;2.87;;;2.00;;
12177;SDS011;6152;48.728;9.256;2024-01-27T06:39:48;7.83;;;2.77;;
12177;SDS011;6152;48.728;9.256;2024-01-27T06:42:15;7.53;;;1.97;;
12177;SDS011;6152;48.728;9.256;2024-01-27T06:44:41;7.30;;;2.20;;
12177;SDS011;6152;48.728;9.256;2024-01-27T06:47:07;7.27;;;2.57;;
12177;SDS011;6152;48.728;9.256;2024-01-27T06:49:33;3.67;;;2.20;;
12177;SDS011;6152;48.728;9.256;2024-01-27T06:51:59;7.33;;;3.17;;
12177;SDS011;6152;48.728;9.256;2024-01-27T06:54:25;5.43;;;2.90;;
12177;SDS011;6152;48.728;9.256;2024-01-27T06:56:52;4.13;;;3.00;;
12177;SDS011;6152;48.728;9.256;2024-01-27T06:59:18;3.90;;;2.60;;
12177;SDS011;6152;48.728;9.256;2024-01-27T07:01:50;5.53;;;2.40;;
12177;SDS011;6152;48.728;9.256;2024-01-27T07:04:16;7.67;;;2.60;;
12177;SDS011;6152;48.728;9.256;2024-01-27T07:06:43;5.63;;;2.63;;
12177;SDS011;6152;48.728;9.256;2024-01-27T07:09:09;8.07;;;3.40;;
12177;SDS011;6152;48.728;9.256;2024-01-27T07:11:36;7.03;;;3.40;;
12177;SDS011;6152;48.728;9.256;2024-01-27T07:14:02;6.90;;;3.07;;
12177;SDS011;6152;48.728;9.256;2024-01-27T07:16:29;4.90;;;2.87;;
12177;SDS011;6152;48.728;9.256;2024-01-27T07:18:57;8.40;;;3.47;;
12177;SDS011;6152;48.728;9.256;2024-01-27T07:21:23;6.83;;;3.10;;
12177;SDS011;6152;48.728;9.256;2024-01-27T07:23:51;7.93;;;3.70;;
12177;SDS011;6152;48.728;9.256;2024-01-27T07:26:18;5.87;;;2.80;;
12177;SDS011;6152;48.728;9.256;2024-01-27T07:28:45;4.93;;;2.63;;
12177;SDS011;6152;48.728;9.256;2024-01-27T07:31:11;7.40;;;3.57;;
12177;SDS011;6152;48.728;9.256;2024-01-27T07:33:38;10.30;;;3.97;;
12177;SDS011;6152;48.728;9.256;2024-01-27T07:36:04;5.20;;;3.30;;
12177;SDS011;6152;48.728;9.256;2024-01-27T07:38:30;7.57;;;3.43;;
12177;SDS011;6152;48.728;9.256;2024-01-27T07:40:56;3.50;;;2.87;;
12177;SDS011;6152;48.728;9.256;2024-01-27T07:43:24;5.40;;;2.90;;
12177;SDS011;6152;48.728;9.256;2024-01-27T07:45:51;5.07;;;2.80;;
12177;SDS011;6152;48.728;9.256;2024-01-27T07:48:17;8.90;;;3.20;;
12177;SDS011;6152;48.728;9.256;2024-01-27T07:50:44;4.73;;;2.97;;
12177;SDS011;6152;48.728;9.256;2024-01-27T07:53:13;7.80;;;3.00;;
12177;SDS011;6152;48.728;9.256;2024-01-27T07:55:40;5.57;;;3.37;;
12177;SDS011;6152;48.728;9.256;2024-01-27T07:58:06;4.90;;;3.37;;
12177;SDS011;6152;48.728;9.256;2024-01-27T08:00:32;6.43;;;4.10;;
12177;SDS011;6152;48.728;9.256;2024-01-27T08:02:58;5.87;;;3.80;;
12177;SDS011;6152;48.728;9.256;2024-01-27T08:05:24;6.63;;;3.40;;
12177;SDS011;6152;48.728;9.256;2024-01-27T08:07:50;5.13;;;3.80;;
12177;SDS011;6152;48.728;9.256;2024-01-27T08:10:16;5.40;;;3.40;;
12177;SDS011;6152;48.728;9.256;2024-01-27T08:12:43;6.15;;;3.17;;
12177;SDS011;6152;48.728;9.256;2024-01-27T08:15:09;6.77;;;3.70;;
12177;SDS011;6152;48.728;9.256;2024-01-27T08:17:37;6.53;;;3.77;;
12177;SDS011;6152;48.728;9.256;2024-01-27T08:20:03;3.97;;;3.30;;
12177;SDS011;6152;48.728;9.256;2024-01-27T08:22:29;5.72;;;3.78;;
12177;SDS011;6152;48.728;9.256;2024-01-27T08:24:55;7.73;;;3.43;;
12177;SDS011;6152;48.728;9.256;2024-01-27T08:27:21;9.23;;;3.57;;
12177;SDS011;6152;48.728;9.256;2024-01-27T08:29:47;3.95;;;3.55;;
12177;SDS011;6152;48.728;9.256;2024-01-27T08:32:13;5.63;;;3.57;;
12177;SDS011;6152;48.728;9.256;2024-01-27T08:34:40;8.43;;;4.07;;
12177;SDS011;6152;48.728;9.256;2024-01-27T08:37:14;7.80;;;4.00;;
12177;SDS011;6152;48.728;9.256;2024-01-27T08:39:42;5.85;;;3.80;;
12177;SDS011;6152;48.728;9.256;2024-01-27T08:42:09;7.00;;;4.38;;
12177;SDS011;6152;48.728;9.256;2024-01-27T08:44:35;7.83;;;4.73;;
12177;SDS011;6152;48.728;9.256;2024-01-27T08:47:02;7.25;;;4.95;;
12177;SDS011;6152;48.728;9.256;2024-01-27T08:49:28;8.02;;;4.90;;
12177;SDS011;6152;48.728;9.256;2024-01-27T08:51:55;5.70;;;4.45;;
12177;SDS011;6152;48.728;9.256;2024-01-27T08:54:21;9.05;;;5.07;;
12177;SDS011;6152;48.728;9.256;2024-01-27T08:56:47;6.97;;;4.70;;
12177;SDS011;6152;48.728;9.256;2024-01-27T08:59:13;7.57;;;4.75;;
12177;SDS011;6152;48.728;9.256;2024-01-27T09:01:39;8.50;;;4.10;;
12177;SDS011;6152;48.728;9.256;2024-01-27T09:04:06;6.47;;;3.83;;
12177;SDS011;6152;48.728;9.256;2024-01-27T09:06:32;6.97;;;4.73;;
12177;SDS011;6152;48.728;9.256;2024-01-27T09:08:59;8.40;;;4.10;;
12177;SDS011;6152;48.728;9.256;2024-01-27T09:11:25;7.97;;;4.20;;
12177;SDS011;6152;48.728;9.256;2024-01-27T09:13:57;5.37;;;4.00;;
12177;SDS011;6152;48.728;9.256;2024-01-27T09:16:23;6.90;;;3.80;;
12177;SDS011;6152;48.728;9.256;2024-01-27T09:18:49;6.30;;;3.53;;
12177;SDS011;6152;48.728;9.256;2024-01-27T09:21:16;5.43;;;3.20;;
12177;SDS011;6152;48.728;9.256;2024-01-27T09:23:45;6.90;;;3.00;;
12177;SDS011;6152;48.728;9.256;2024-01-27T09:26:12;4.53;;;3.27;;
12177;SDS011;6152;48.728;9.256;2024-01-27T09:28:40;5.87;;;3.47;;
12177;SDS011;6152;48.728;9.256;2024-01-27T09:31:10;4.38;;;2.95;;
12177;SDS011;6152;48.728;9.256;2024-01-27T09:33:37;3.30;;;3.00;;
12177;SDS011;6152;48.728;9.256;2024-01-27T09:36:03;6.18;;;2.85;;
12177;SDS011;6152;48.728;9.256;2024-01-27T09:38:29;3.17;;;2.42;;
12177;SDS011;6152;48.728;9.256;2024-01-27T09:40:55;4.18;;;2.35;;
12177;SDS011;6152;48.728;9.256;2024-01-27T09:43:22;4.18;;;2.35;;
12177;SDS011;6152;48.728;9.256;2024-01-27T09:45:53;4.00;;;2.75;;
12177;SDS011;6152;48.728;9.256;2024-01-27T09:48:20;2.33;;;2.10;;
12177;SDS011;6152;48.728;9.256;2024-01-27T09:50:46;12.40;;;2.58;;
12177;SDS011;6152;48.728;9.256;2024-01-27T09:53:14;3.67;;;2.50;;
12177;SDS011;6152;48.728;9.256;2024-01-27T09:55:40;6.40;;;2.53;;
12177;SDS011;6152;48.728;9.256;2024-01-27T09:58:09;3.88;;;2.30;;
12177;SDS011;6152;48.728;9.256;2024-01-27T10:00:35;2.60;;;2.22;;
12177;SDS011;6152;48.728;9.256;2024-01-27T10:03:03;3.50;;;2.13;;
12177;SDS011;6152;48.728;9.256;2024-01-27T10:05:31;2.42;;;2.22;;
12177;SDS011;6152;48.728;9.256;2024-01-27T10:07:58;3.20;;;2.40;;
12177;SDS011;6152;48.728;9.256;2024-01-27T10:10:24;6.28;;;2.72;;
12177;SDS011;6152;48.728;9.256;2024-01-27T10:12:51;6.60;;;2.90;;
12177;SDS011;6152;48.728;9.256;2024-01-27T10:15:22;5.30;;;2.75;;
12177;SDS011;6152;48.728;9.256;2024-01-27T10:17:48;2.72;;;2.50;;
12177;SDS011;6152;48.728;9.256;2024-01-27T10:20:15;2.92;;;2.47;;
12177;SDS011;6152;48.728;9.256;2024-01-27T10:22:43;4.43;;;2.50;;
12177;SDS011;6152;48.728;9.256;2024-01-27T10:25:10;6.68;;;3.00;;
12177;SDS011;6152;48.728;9.256;2024-01-27T10:27:37;3.08;;;2.80;;
12177;SDS011;6152;48.728;9.256;2024-01-27T10:30:03;2.90;;;2.60;;
12177;SDS011;6152;48.728;9.256;2024-01-27T10:32:32;3.33;;;2.70;;
12177;SDS011;6152;48.728;9.256;2024-01-27T10:35:02;4.15;;;2.85;;
12177;SDS011;6152;48.728;9.256;2024-01-27T10:37:28;4.38;;;2.95;;
12177;SDS011;6152;48.728;9.256;2024-01-27T10:40:03;3.65;;;2.50;;
12177;SDS011;6152;48.728;9.256;2024-01-27T10:42:32;4.78;;;2.70;;
12177;SDS011;6152;48.728;9.256;2024-01-27T10:47:53;4.60;;;1.98;;
12177;SDS011;6152;48.728;9.256;2024-01-27T10:50:24;2.35;;;2.05;;
12177;SDS011;6152;48.728;9.256;2024-01-27T10:52:51;2.83;;;2.13;;
12177;SDS011;6152;48.728;9.256;2024-01-27T10:55:22;4.32;;;2.28;;
12177;SDS011;6152;48.728;9.256;2024-01-27T10:57:49;4.10;;;2.35;;
12177;SDS011;6152;48.728;9.256;2024-01-27T11:00:17;3.22;;;2.22;;
12177;SDS011;6152;48.728;9.256;2024-01-27T11:02:43;4.07;;;2.20;;
12177;SDS011;6152;48.728;9.256;2024-01-27T11:05:10;3.55;;;2.63;;
12177;SDS011;6152;48.728;9.256;2024-01-27T11:07:38;3.22;;;2.03;;
12177;SDS011;6152;48.728;9.256;2024-01-27T11:10:06;4.05;;;2.58;;
12177;SDS011;6152;48.728;9.256;2024-01-27T11:12:33;3.97;;;2.38;;
12177;SDS011;6152;48.728;9.256;2024-01-27T11:15:00;6.10;;;2.65;;
12177;SDS011;6152;48.728;9.256;2024-01-27T11:17:27;3.97;;;2.50;;
12177;SDS011;6152;48.728;9.256;2024-01-27T11:19:55;6.75;;;2.40;;
12177;SDS011;6152;48.728;9.256;2024-01-27T11:22:25;5.00;;;2.47;;
12177;SDS011;6152;48.728;9.256;2024-01-27T11:25:08;2.75;;;2.33;;
12177;SDS011;6152;48.728;9.256;2024-01-27T11:27:38;5.00;;;2.60;;
12177;SDS011;6152;48.728;9.256;2024-01-27T11:30:05;5.28;;;2.80;;
12177;SDS011;6152;48.728;9.256;2024-01-27T11:32:49;6.82;;;2.97;;
12177;SDS011;6152;48.728;9.256;2024-01-27T11:35:18;5.55;;;3.03;;
12177;SDS011;6152;48.728;9.256;2024-01-27T11:37:44;4.43;;;2.72;;
12177;SDS011;6152;48.728;9.256;2024-01-27T11:40:10;2.78;;;2.38;;
12177;SDS011;6152;48.728;9.256;2024-01-27T11:42:37;5.63;;;2.78;;
12177;SDS011;6152;48.728;9.256;2024-01-27T11:45:03;4.35;;;2.50;;
12177;SDS011;6152;48.728;9.256;2024-01-27T11:47:29;5.18;;;2.67;;
12177;SDS011;6152;48.728;9.256;2024-01-27T11:49:56;6.45;;;2.63;;
12177;SDS011;6152;48.728;9.256;2024-01-27T11:52:23;3.88;;;2.10;;
12177;SDS011;6152;48.728;9.256;2024-01-27T11:54:54;7.68;;;2.50;;
12177;SDS011;6152;48.728;9.256;2024-01-27T11:57:20;6.53;;;3.28;;
12177;SDS011;6152;48.728;9.256;2024-01-27T11:59:47;7.70;;;2.50;;
12177;SDS011;6152;48.728;9.256;2024-01-27T12:02:13;4.68;;;2.20;;
12177;SDS011;6152;48.728;9.256;2024-01-27T12:04:39;3.05;;;1.92;;
12177;SDS011;6152;48.728;9.256;2024-01-27T12:07:06;4.80;;;2.30;;
12177;SDS011;6152;48.728;9.256;2024-01-27T12:09:33;3.90;;;2.63;;
12177;SDS011;6152;48.728;9.256;2024-01-27T12:12:00;6.10;;;2.55;;
12177;SDS011;6152;48.728;9.256;2024-01-27T12:14:37;3.85;;;2.60;;
12177;SDS011;6152;48.728;9.256;2024-01-27T12:17:04;6.05;;;2.92;;
12177;SDS011;6152;48.728;9.256;2024-01-27T12:19:32;5.47;;;2.75;;
12177;SDS011;6152;48.728;9.256;2024-01-27T12:21:59;4.85;;;2.95;;
12177;SDS011;6152;48.728;9.256;2024-01-27T12:24:25;6.40;;;2.72;;
12177;SDS011;6152;48.728;9.256;2024-01-27T12:26:51;3.67;;;2.50;;
12177;SDS011;6152;48.728;9.256;2024-01-27T12:29:19;5.00;;;2.55;;
12177;SDS011;6152;48.728;9.256;2024-01-27T12:31:45;4.25;;;2.40;;
12177;SDS011;6152;48.728;9.256;2024-01-27T12:34:12;8.93;;;2.60;;
12177;SDS011;6152;48.728;9.256;2024-01-27T12:36:41;4.57;;;2.67;;
12177;SDS011;6152;48.728;9.256;2024-01-27T12:39:08;5.95;;;2.67;;
12177;SDS011;6152;48.728;9.256;2024-01-27T12:41:34;4.30;;;2.30;;
12177;SDS011;6152;48.728;9.256;2024-01-27T12:44:01;4.18;;;2.20;;
12177;SDS011;6152;48.728;9.256;2024-01-27T12:46:27;5.32;;;2.53;;
12177;SDS011;6152;48.728;9.256;2024-01-27T12:48:54;6.25;;;2.45;;
12177;SDS011;6152;48.728;9.256;2024-01-27T12:51:20;5.32;;;2.20;;
12177;SDS011;6152;48.728;9.256;2024-01-27T12:53:46;4.22;;;1.98;;
12177;SDS011;6152;48.728;9.256;2024-01-27T12:56:13;5.75;;;2.97;;
12177;SDS011;6152;48.728;9.256;2024-01-27T12:58:40;5.15;;;2.45;;
12177;SDS011;6152;48.728;9.256;2024-01-27T13:01:08;5.72;;;2.30;;
12177;SDS011;6152;48.728;9.256;2024-01-27T13:03:34;3.95;;;2.20;;
12177;SDS011;6152;48.728;9.256;2024-01-27T13:06:01;2.42;;;1.65;;
12177;SDS011;6152;48.728;9.256;2024-01-27T13:08:27;3.20;;;1.70;;
12177;SDS011;6152;48.728;9.256;2024-01-27T13:10:53;4.30;;;2.38;;
12177;SDS011;6152;48.728;9.256;2024-01-27T13:13:20;4.28;;;1.60;;
12177;SDS011;6152;48.728;9.256;2024-01-27T13:15:46;5.32;;;1.90;;
12177;SDS011;6152;48.728;9.256;2024-01-27T13:18:12;3.67;;;1.88;;
12177;SDS011;6152;48.728;9.256;2024-01-27T13:20:38;3.00;;;1.40;;
12177;SDS011;6152;48.728;9.256;2024-01-27T13:23:07;3.67;;;1.80;;
12177;SDS011;6152;48.728;9.256;2024-01-27T13:25:33;3.00;;;1.50;;
12177;SDS011;6152;48.728;9.256;2024-01-27T13:27:59;3.38;;;1.40;;
12177;SDS011;6152;48.728;9.256;2024-01-27T13:30:25;3.75;;;1.55;;
12177;SDS011;6152;48.728;9.256;2024-01-27T13:32:53;5.65;;;1.92;;
12177;SDS011;6152;48.728;9.256;2024-01-27T13:35:19;3.63;;;2.22;;
12177;SDS011;6152;48.728;9.256;2024-01-27T13:37:45;4.78;;;1.75;;
12177;SDS011;6152;48.728;9.256;2024-01-27T13:40:13;3.53;;;1.67;;
12177;SDS011;6152;48.728;9.256;2024-01-27T13:42:39;3.42;;;1.63;;
12177;SDS011;6152;48.728;9.256;2024-01-27T13:45:05;5.30;;;2.53;;
12177;SDS011;6152;48.728;9.256;2024-01-27T13:47:33;3.85;;;1.85;;
12177;SDS011;6152;48.728;9.256;2024-01-27T13:49:59;2.58;;;1.52;;
12177;SDS011;6152;48.728;9.256;2024-01-27T13:52:26;5.63;;;2.03;;
12177;SDS011;6152;48.728;9.256;2024-01-27T13:54:54;3.47;;;2.08;;
12177;SDS011;6152;48.728;9.256;2024-01-27T13:57:20;2.40;;;1.60;;
12177;SDS011;6152;48.728;9.256;2024-01-27T13:59:46;1.98;;;1.50;;
12177;SDS011;6152;48.728;9.256;2024-01-27T14:02:13;4.15;;;1.35;;
12177;SDS011;6152;48.728;9.256;2024-01-27T14:04:39;2.67;;;1.55;;
12177;SDS011;6152;48.728;9.256;2024-01-27T14:07:05;7.20;;;1.67;;
12177;SDS011;6152;48.728;9.256;2024-01-27T14:09:33;3.63;;;1.50;;
12177;SDS011;6152;48.728;9.256;2024-01-27T14:11:59;2.50;;;1.38;;
12177;SDS011;6152;48.728;9.256;2024-01-27T14:14:26;3.92;;;1.38;;
12177;SDS011;6152;48.728;9.256;2024-01-27T14:16:53;2.95;;;1.08;;
12177;SDS011;6152;48.728;9.256;2024-01-27T14:19:19;5.53;;;1.48;;
12177;SDS011;6152;48.728;9.256;2024-01-27T14:21:45;3.67;;;1.10;;
12177;SDS011;6152;48.728;9.256;2024-01-27T14:24:11;4.63;;;1.52;;
12177;SDS011;6152;48.728;9.256;2024-01-27T14:26:37;4.50;;;1.75;;
12177;SDS011;6152;48.728;9.256;2024-01-27T14:29:04;4.90;;;1.63;;
12177;SDS011;6152;48.728;9.256;2024-01-27T14:31:30;4.28;;;1.73;;
12177;SDS011;6152;48.728;9.256;2024-01-27T14:33:56;4.65;;;1.63;;
12177;SDS011;6152;48.728;9.256;2024-01-27T14:36:23;7.15;;;1.65;;
12177;SDS011;6152;48.728;9.256;2024-01-27T14:38:50;5.35;;;1.80;;
12177;SDS011;6152;48.728;9.256;2024-01-27T14:41:17;3.42;;;1.35;;
12177;SDS011;6152;48.728;9.256;2024-01-27T14:43:43;6.40;;;1.88;;
12177;SDS011;6152;48.728;9.256;2024-01-27T14:46:09;6.93;;;1.85;;
12177;SDS011;6152;48.728;9.256;2024-01-27T14:48:35;4.10;;;1.70;;
12177;SDS011;6152;48.728;9.256;2024-01-27T14:51:02;6.20;;;2.05;;
12177;SDS011;6152;48.728;9.256;2024-01-27T14:53:30;6.38;;;2.40;;
12177;SDS011;6152;48.728;9.256;2024-01-27T14:55:56;4.90;;;2.13;;
12177;SDS011;6152;48.728;9.256;2024-01-27T14:58:22;4.18;;;1.60;;
12177;SDS011;6152;48.728;9.256;2024-01-27T15:00:49;4.10;;;1.80;;